Impacts TAF Board INFO
FOR SITUATIONAL AWARENESS. NOT TO BE USED FOR FLIGHT PLANNING PURPOSES.
IDs:

KMCO - Orlando Intl, FL, US

Issued at 1514 UTC 18 Nov 2017
Updated at 1537 UTC 18 Nov 2017
Potential Impact None Slight Moderate High
Time<<19/04Z 19/05Z 19/06Z 19/07Z 19/08Z 19/09Z 19/10Z 19/11Z 19/12Z 19/13Z 19/14Z 19/15Z 19/16Z>>
Type PRVL PRVL PRVL PRVL PRVL PRVL PRVL PRVL PRVL PRVL PRVL PRVL PRVL
VIS >6 >6 >6 >6 >6 >6 >6 >6 >6 >6 >6 >6 >6
CIG -- -- -- -- -- -- -- -- -- -- -- 100 100
Cover SKC SKC SKC SKC SKC SKC SKC SKC SKC SKC SKC BKN BKN
FltCat VFR VFR VFR VFR VFR VFR VFR VFR VFR VFR VFR VFR VFR
WX -- -- -- -- -- -- -- -- -- -- -- -- --
WDir VRB VRB VRB VRB VRB VRB VRB VRB VRB VRB VRB 230 230
WSpd 2 2 2 2 2 2 2 2 2 2 2 9 9
WGst -- -- -- -- -- -- -- -- -- -- -- -- --

Raw TAF
KMCO 181514Z 1815/1918 VRB03KT P6SM FEW040
  FM181800 18007KT P6SM FEW050
  FM190000 VRB02KT P6SM SKC
  FM191500 23009KT P6SM SCT025 BKN100


METAR Board
Radar Display
Forecast Discussion

FOR SITUATIONAL AWARENESS. NOT TO BE USED FOR FLIGHT PLANNING PURPOSES.